createdAt,value
2017-08-29T00:00:59.256Z,5.90
2017-08-29T00:04:09.268Z,7.20
2017-08-29T00:07:18.975Z,6.00
2017-08-29T00:10:28.988Z,6.70
2017-08-29T00:13:39.997Z,5.83
2017-08-29T00:16:51.628Z,7.18
2017-08-29T00:20:02.008Z,6.20
2017-08-29T00:23:12.400Z,5.30
2017-08-29T00:26:22.979Z,6.50
2017-08-29T00:29:33.018Z,6.93
2017-08-29T00:32:43.131Z,6.40
2017-08-29T00:35:53.475Z,7.40
2017-08-29T00:39:03.548Z,7.78
2017-08-29T00:42:14.307Z,7.80
2017-08-29T00:45:24.417Z,7.73
2017-08-29T00:48:34.217Z,7.47
2017-08-29T00:51:44.373Z,7.62
2017-08-29T00:54:54.389Z,7.62
2017-08-29T00:58:04.492Z,6.30
2017-08-29T01:01:14.748Z,6.60
2017-08-29T01:04:24.991Z,6.93
2017-08-29T01:07:35.883Z,7.30
2017-08-29T01:10:45.468Z,6.90
2017-08-29T01:13:55.939Z,7.13
2017-08-29T01:17:05.997Z,7.50
2017-08-29T01:20:15.669Z,6.95
2017-08-29T01:23:25.712Z,6.80
2017-08-29T01:26:35.451Z,7.65
2017-08-29T01:29:45.671Z,7.18
2017-08-29T01:32:55.089Z,6.70
2017-08-29T01:36:04.773Z,7.43
2017-08-29T01:39:14.180Z,7.00
2017-08-29T01:42:25.084Z,7.70
2017-08-29T01:45:35.068Z,6.28
2017-08-29T01:48:45.141Z,6.53
2017-08-29T01:51:55.324Z,6.33
2017-08-29T01:55:05.206Z,6.67
2017-08-29T01:58:15.259Z,5.80
2017-08-29T02:01:25.789Z,7.43
2017-08-29T02:04:35.349Z,6.23
2017-08-29T02:07:44.536Z,6.50
2017-08-29T02:10:54.216Z,6.80
2017-08-29T02:14:04.632Z,6.70
2017-08-29T02:17:15.340Z,7.20
2017-08-29T02:20:25.770Z,7.30
2017-08-29T02:23:36.532Z,6.53
2017-08-29T02:26:46.962Z,7.43
2017-08-29T02:29:57.538Z,6.10
2017-08-29T02:33:07.980Z,6.37
2017-08-29T02:36:18.208Z,5.60
2017-08-29T02:39:28.164Z,6.80
2017-08-29T02:42:38.864Z,6.32
2017-08-29T02:45:48.826Z,7.75
2017-08-29T02:48:59.098Z,6.10
2017-08-29T02:52:09.136Z,6.60
2017-08-29T02:55:19.296Z,7.20
2017-08-29T02:58:29.178Z,6.93
2017-08-29T03:01:39.820Z,6.85
2017-08-29T03:04:50.253Z,7.00
2017-08-29T03:08:00.945Z,6.65
2017-08-29T03:11:11.385Z,7.10
2017-08-29T03:14:21.626Z,6.12
2017-08-29T03:17:32.297Z,6.90
2017-08-29T03:20:42.344Z,6.83
2017-08-29T03:23:52.844Z,5.80
2017-08-29T03:27:03.105Z,5.87
2017-08-29T03:30:13.433Z,6.10
2017-08-29T03:33:24.158Z,6.10
2017-08-29T03:36:34.598Z,6.00
2017-08-29T03:39:44.640Z,6.53
2017-08-29T03:42:55.117Z,5.50
2017-08-29T03:46:05.651Z,5.97
2017-08-29T03:49:15.485Z,5.47
2017-08-29T03:52:26.220Z,7.25
2017-08-29T03:55:36.819Z,7.10
2017-08-29T03:58:47.459Z,6.90
2017-08-29T04:01:57.673Z,6.53
2017-08-29T04:05:08.533Z,6.03
2017-08-29T04:08:18.674Z,6.33
2017-08-29T04:11:28.831Z,5.93
2017-08-29T04:14:39.456Z,5.75
2017-08-29T04:17:49.934Z,6.57
2017-08-29T04:20:59.623Z,5.60
2017-08-29T04:24:09.519Z,5.20
2017-08-29T04:27:19.864Z,6.00
2017-08-29T04:30:29.987Z,5.97
2017-08-29T04:33:40.016Z,5.20
2017-08-29T04:36:50.644Z,6.20
2017-08-29T04:40:01.373Z,5.30
2017-08-29T04:43:11.114Z,6.07
2017-08-29T04:46:21.406Z,5.67
2017-08-29T04:49:31.854Z,5.57
2017-08-29T04:52:41.845Z,4.95
2017-08-29T04:55:51.984Z,5.60
2017-08-29T04:59:02.325Z,5.03
2017-08-29T05:02:13.068Z,5.15
2017-08-29T05:05:23.922Z,6.00
2017-08-29T05:08:33.716Z,4.43
2017-08-29T05:11:44.375Z,5.53
2017-08-29T05:14:55.084Z,5.82
2017-08-29T05:18:05.421Z,5.23
2017-08-29T05:21:15.480Z,5.87
2017-08-29T05:24:25.281Z,6.40
2017-08-29T05:27:35.492Z,4.57
2017-08-29T05:30:45.527Z,5.27
2017-08-29T05:33:55.856Z,3.93
2017-08-29T05:37:05.511Z,4.37
2017-08-29T05:40:15.761Z,4.80
2017-08-29T05:43:25.477Z,4.35
2017-08-29T05:46:35.668Z,6.30
2017-08-29T05:49:46.342Z,5.20
2017-08-29T05:52:56.500Z,5.57
2017-08-29T05:56:06.524Z,4.80
2017-08-29T05:59:19.868Z,4.50
2017-08-29T06:02:29.895Z,4.80
2017-08-29T06:05:40.566Z,4.80
2017-08-29T06:08:50.777Z,5.35
2017-08-29T06:12:00.720Z,4.78
2017-08-29T06:15:10.660Z,4.70
2017-08-29T06:18:21.236Z,5.40
2017-08-29T06:21:31.400Z,4.40
2017-08-29T06:24:41.453Z,5.17
2017-08-29T06:27:51.325Z,4.15
2017-08-29T06:31:01.472Z,4.65
2017-08-29T06:34:11.563Z,5.37
2017-08-29T06:37:22.028Z,5.23
2017-08-29T06:40:32.675Z,5.55
2017-08-29T06:43:45.220Z,6.45
2017-08-29T06:46:57.000Z,5.37
2017-08-29T06:50:07.362Z,6.70
2017-08-29T06:53:17.320Z,5.55
2017-08-29T06:56:27.609Z,5.43
2017-08-29T06:59:38.370Z,5.20
2017-08-29T07:02:49.088Z,6.50
2017-08-29T07:05:58.990Z,5.28
2017-08-29T07:09:08.925Z,5.87
2017-08-29T07:12:19.032Z,6.93
2017-08-29T07:15:28.485Z,6.67
2017-08-29T07:18:38.497Z,5.50
2017-08-29T07:21:48.098Z,6.90
2017-08-29T07:24:57.882Z,5.53
2017-08-29T07:28:07.929Z,5.40
2017-08-29T07:31:18.436Z,6.00
2017-08-29T07:34:28.566Z,7.57
2017-08-29T07:37:38.517Z,6.05
2017-08-29T07:40:48.648Z,5.25
2017-08-29T07:43:59.026Z,6.75
2017-08-29T07:47:09.190Z,5.53
2017-08-29T07:50:20.396Z,6.13
2017-08-29T07:53:30.951Z,6.87
2017-08-29T07:56:41.000Z,16.17
2017-08-29T07:59:50.890Z,10.65
2017-08-29T08:03:01.433Z,10.73
2017-08-29T08:06:11.850Z,5.87
2017-08-29T08:09:21.689Z,6.12
2017-08-29T08:12:31.769Z,6.35
2017-08-29T08:15:41.343Z,8.15
2017-08-29T08:18:51.808Z,6.10
2017-08-29T08:22:01.603Z,6.70
2017-08-29T08:25:12.317Z,8.00
2017-08-29T08:28:22.542Z,5.63
2017-08-29T08:31:32.816Z,8.20
2017-08-29T08:34:42.921Z,8.48
2017-08-29T08:37:53.283Z,8.10
2017-08-29T08:41:03.692Z,7.37
2017-08-29T08:44:13.752Z,8.43
2017-08-29T08:47:24.070Z,8.27
2017-08-29T08:50:34.320Z,8.00
2017-08-29T08:53:45.555Z,9.30
2017-08-29T08:56:55.180Z,9.20
2017-08-29T09:00:05.106Z,8.73
2017-08-29T09:03:15.598Z,7.70
2017-08-29T09:06:25.703Z,7.57
2017-08-29T09:09:36.319Z,9.40
2017-08-29T09:12:46.342Z,8.68
2017-08-29T09:15:56.616Z,10.00
2017-08-29T09:19:07.275Z,10.57
2017-08-29T09:22:17.527Z,9.87
2017-08-29T09:25:27.389Z,9.98
2017-08-29T09:28:37.550Z,9.57
2017-08-29T09:31:47.946Z,9.40
2017-08-29T09:34:58.246Z,10.20
2017-08-29T09:38:13.045Z,10.30
2017-08-29T09:41:23.903Z,10.10
2017-08-29T09:44:34.081Z,9.25
2017-08-29T09:47:44.083Z,9.15
2017-08-29T09:50:54.320Z,10.13
2017-08-29T09:54:04.550Z,10.73
2017-08-29T09:57:14.764Z,9.40
2017-08-29T10:00:24.898Z,8.10
2017-08-29T10:03:35.145Z,8.73
2017-08-29T10:06:45.683Z,8.38
2017-08-29T10:09:55.988Z,10.65
2017-08-29T10:13:06.119Z,11.27
2017-08-29T10:16:16.576Z,10.80
2017-08-29T10:19:27.337Z,9.23
2017-08-29T10:22:37.342Z,9.88
2017-08-29T10:25:47.413Z,9.35
2017-08-29T10:28:57.274Z,9.10
2017-08-29T10:32:07.041Z,9.40
2017-08-29T10:35:17.730Z,8.48
2017-08-29T10:38:28.320Z,7.77
2017-08-29T10:41:38.653Z,7.30
2017-08-29T10:44:49.669Z,6.77
2017-08-29T10:47:59.433Z,8.03
2017-08-29T10:51:09.121Z,8.20
2017-08-29T10:54:19.651Z,8.88
2017-08-29T10:57:29.210Z,8.52
2017-08-29T11:00:39.305Z,7.93
2017-08-29T11:03:50.092Z,7.60
2017-08-29T11:07:00.016Z,7.50
2017-08-29T11:10:10.445Z,7.78
2017-08-29T11:13:20.310Z,6.97
2017-08-29T11:16:30.447Z,7.70
2017-08-29T11:19:40.705Z,5.90
2017-08-29T11:22:51.085Z,6.53
2017-08-29T11:26:01.420Z,6.93
2017-08-29T11:29:12.736Z,7.20
2017-08-29T11:32:22.095Z,6.83
2017-08-29T11:35:32.142Z,7.72
2017-08-29T11:38:42.523Z,8.23
2017-08-29T11:41:52.444Z,6.57
2017-08-29T11:45:02.477Z,8.10
2017-08-29T11:48:12.616Z,6.83
2017-08-29T11:51:22.025Z,6.80
2017-08-29T11:54:32.153Z,8.45
2017-08-29T11:57:42.538Z,8.88
2017-08-29T12:00:52.725Z,7.37
2017-08-29T12:04:02.632Z,6.50
2017-08-29T12:07:13.648Z,7.53
2017-08-29T12:10:23.278Z,7.63
2017-08-29T12:13:33.678Z,8.13
2017-08-29T12:16:44.118Z,6.43
2017-08-29T12:19:54.310Z,7.13
2017-08-29T12:23:04.820Z,7.33
2017-08-29T12:26:15.034Z,7.17
2017-08-29T12:29:25.418Z,9.07
2017-08-29T12:32:35.793Z,6.47
2017-08-29T12:35:45.443Z,8.27
2017-08-29T12:38:55.667Z,5.90
2017-08-29T12:42:06.098Z,5.30
2017-08-29T12:45:16.112Z,6.22
2017-08-29T12:48:26.543Z,7.00
2017-08-29T12:51:36.854Z,5.50
2017-08-29T12:54:47.309Z,7.10
2017-08-29T12:57:57.861Z,6.12
2017-08-29T13:01:07.361Z,6.65
2017-08-29T13:04:17.521Z,6.93
2017-08-29T13:07:28.029Z,7.32
2017-08-29T13:10:38.449Z,6.85
2017-08-29T13:13:48.728Z,7.45
2017-08-29T13:16:58.691Z,6.17
2017-08-29T13:20:08.665Z,5.20
2017-08-29T13:23:18.315Z,7.22
2017-08-29T13:26:28.815Z,7.35
2017-08-29T13:29:39.169Z,7.15
2017-08-29T13:32:50.081Z,7.20
2017-08-29T13:35:59.916Z,5.78
2017-08-29T13:39:10.359Z,6.50
2017-08-29T13:42:21.001Z,5.10
2017-08-29T13:45:31.312Z,6.28
2017-08-29T13:48:41.697Z,6.55
2017-08-29T13:51:52.197Z,6.57
2017-08-29T13:55:01.752Z,6.37
2017-08-29T13:58:11.769Z,6.95
2017-08-29T14:01:22.524Z,5.82
2017-08-29T14:04:32.481Z,6.53
2017-08-29T14:07:42.682Z,7.17
2017-08-29T14:10:52.540Z,7.30
2017-08-29T14:14:03.101Z,7.35
2017-08-29T14:17:13.749Z,7.50
2017-08-29T14:20:23.938Z,7.12
2017-08-29T14:23:34.384Z,8.77
2017-08-29T14:26:44.922Z,7.25
2017-08-29T14:29:55.423Z,8.65
2017-08-29T14:33:05.653Z,8.23
2017-08-29T14:36:16.336Z,8.02
2017-08-29T14:39:27.043Z,8.27
2017-08-29T14:42:37.460Z,8.40
2017-08-29T14:45:47.734Z,8.90
2017-08-29T14:49:09.723Z,6.47
2017-08-29T14:52:20.145Z,7.50
2017-08-29T14:55:30.824Z,8.00
2017-08-29T14:58:40.537Z,7.47
2017-08-29T15:01:50.020Z,7.67
2017-08-29T15:05:00.100Z,7.93
2017-08-29T15:08:09.631Z,7.70
2017-08-29T15:11:20.021Z,7.40
2017-08-29T15:14:30.225Z,7.55
2017-08-29T15:17:40.774Z,7.37
2017-08-29T15:20:50.793Z,7.20
2017-08-29T15:24:01.097Z,6.80
2017-08-29T15:27:12.274Z,10.40
2017-08-29T15:30:21.836Z,7.40
2017-08-29T15:33:31.447Z,6.80
2017-08-29T15:36:41.778Z,7.47
2017-08-29T15:39:52.229Z,8.60
2017-08-29T15:43:02.064Z,8.73
2017-08-29T15:46:12.575Z,8.30
2017-08-29T15:49:22.996Z,7.22
2017-08-29T15:52:33.330Z,7.95
2017-08-29T15:55:43.821Z,7.35
2017-08-29T15:58:53.579Z,9.10
2017-08-29T16:02:03.269Z,7.90
2017-08-29T16:05:13.558Z,9.23
2017-08-29T16:08:23.525Z,8.40
2017-08-29T16:11:33.697Z,9.00
2017-08-29T16:14:43.586Z,9.32
2017-08-29T16:17:54.065Z,7.77
2017-08-29T16:21:03.886Z,8.30
2017-08-29T16:24:14.436Z,8.60
2017-08-29T16:27:24.412Z,7.93
2017-08-29T16:30:34.291Z,8.70
2017-08-29T16:33:44.734Z,8.50
2017-08-29T16:36:55.485Z,8.90
2017-08-29T16:40:05.385Z,7.90
2017-08-29T16:43:15.097Z,8.75
2017-08-29T16:46:25.127Z,8.30
2017-08-29T16:49:35.036Z,11.43
2017-08-29T16:52:45.320Z,9.00
2017-08-29T16:55:55.525Z,8.82
2017-08-29T16:59:06.929Z,8.50
2017-08-29T17:02:17.569Z,9.17
2017-08-29T17:05:28.046Z,8.23
2017-08-29T17:08:38.052Z,8.07
2017-08-29T17:11:48.698Z,11.70
2017-08-29T17:14:59.205Z,8.83
2017-08-29T17:18:09.426Z,8.33
2017-08-29T17:21:19.741Z,8.50
2017-08-29T17:24:31.143Z,8.15
2017-08-29T17:27:41.804Z,8.77
2017-08-29T17:30:52.685Z,8.75
2017-08-29T17:34:02.597Z,10.05
2017-08-29T17:37:12.857Z,8.67
2017-08-29T17:40:22.950Z,8.40
2017-08-29T17:43:33.310Z,9.02
2017-08-29T17:46:43.892Z,7.80
2017-08-29T17:49:54.190Z,8.10
2017-08-29T17:53:04.561Z,8.37
2017-08-29T17:56:14.168Z,8.80
2017-08-29T17:59:24.771Z,9.05
2017-08-29T18:02:35.466Z,8.27
2017-08-29T18:05:46.088Z,8.30
2017-08-29T18:08:56.213Z,9.23
2017-08-29T18:12:05.805Z,9.60
2017-08-29T18:15:15.779Z,9.85
2017-08-29T18:18:25.349Z,9.40
2017-08-29T18:21:35.805Z,9.83
2017-08-29T18:24:46.889Z,10.00
2017-08-29T18:27:57.058Z,9.95
2017-08-29T18:31:07.504Z,9.27
2017-08-29T18:34:17.745Z,10.35
2017-08-29T18:37:28.269Z,9.60
2017-08-29T18:40:38.589Z,8.47
2017-08-29T18:43:48.577Z,9.35
2017-08-29T18:47:00.147Z,8.50
2017-08-29T18:50:10.811Z,9.50
2017-08-29T18:53:21.492Z,9.63
2017-08-29T18:56:32.269Z,10.90
2017-08-29T18:59:42.797Z,9.88
2017-08-29T19:02:53.195Z,9.77
2017-08-29T19:06:03.656Z,9.10
2017-08-29T19:09:17.211Z,10.25
2017-08-29T19:12:27.354Z,9.93
2017-08-29T19:15:37.535Z,10.02
2017-08-29T19:18:48.280Z,10.83
2017-08-29T19:21:58.476Z,11.37
2017-08-29T19:25:10.686Z,9.80
2017-08-29T19:28:20.716Z,9.68
2017-08-29T19:31:31.133Z,10.13
2017-08-29T19:34:40.890Z,9.57
2017-08-29T19:37:51.418Z,10.10
2017-08-29T19:41:02.418Z,10.00
2017-08-29T19:44:13.187Z,10.95
2017-08-29T19:47:24.251Z,9.50
2017-08-29T19:50:35.125Z,9.40
2017-08-29T19:53:44.957Z,9.77
2017-08-29T19:56:54.814Z,9.23
2017-08-29T20:00:05.024Z,10.68
2017-08-29T20:03:20.584Z,11.48
2017-08-29T20:06:31.273Z,12.93
2017-08-29T20:09:41.452Z,10.17
2017-08-29T20:12:51.349Z,9.65
2017-08-29T20:16:05.845Z,11.68
2017-08-29T20:19:16.153Z,12.02
2017-08-29T20:22:25.705Z,12.40
2017-08-29T20:25:35.881Z,10.00
2017-08-29T20:28:46.123Z,10.80
2017-08-29T20:31:56.254Z,9.98
2017-08-29T20:35:06.542Z,10.07
2017-08-29T20:38:17.448Z,10.48
2017-08-29T20:41:27.813Z,9.10
2017-08-29T20:44:37.636Z,10.37
2017-08-29T20:47:47.616Z,10.30
2017-08-29T20:50:57.780Z,11.15
2017-08-29T20:54:07.812Z,10.65
2017-08-29T20:57:18.487Z,10.57
2017-08-29T21:00:28.735Z,11.63
2017-08-29T21:03:39.183Z,12.25
2017-08-29T21:06:49.191Z,10.90
2017-08-29T21:09:59.072Z,10.95
2017-08-29T21:13:08.753Z,12.10
2017-08-29T21:16:19.245Z,14.13
2017-08-29T21:19:29.916Z,11.43
2017-08-29T21:22:39.712Z,10.70
2017-08-29T21:25:50.225Z,10.13
2017-08-29T21:29:01.313Z,12.30
2017-08-29T21:32:11.341Z,11.27
2017-08-29T21:35:21.517Z,10.95
2017-08-29T21:38:32.176Z,11.07
2017-08-29T21:41:42.765Z,10.75
2017-08-29T21:44:53.147Z,10.95
2017-08-29T21:48:03.338Z,9.90
2017-08-29T21:51:13.793Z,11.60
2017-08-29T21:54:24.504Z,11.18
2017-08-29T21:57:35.840Z,9.87
2017-08-29T22:00:46.058Z,11.57
2017-08-29T22:03:56.670Z,11.57
2017-08-29T22:07:06.770Z,12.03
2017-08-29T22:10:17.432Z,13.65
2017-08-29T22:13:31.242Z,10.47
2017-08-29T22:16:41.093Z,12.35
2017-08-29T22:19:50.677Z,11.40
2017-08-29T22:23:01.324Z,10.85
2017-08-29T22:26:11.470Z,11.73
2017-08-29T22:29:21.761Z,10.20
2017-08-29T22:32:31.776Z,13.07
2017-08-29T22:35:41.745Z,11.43
2017-08-29T22:38:52.265Z,12.07
2017-08-29T22:42:03.536Z,10.95
2017-08-29T22:45:13.272Z,11.27
2017-08-29T22:48:22.969Z,11.45
2017-08-29T22:51:32.991Z,10.30
2017-08-29T22:54:43.552Z,10.93
2017-08-29T22:57:53.949Z,11.20
2017-08-29T23:01:04.019Z,11.20
2017-08-29T23:04:14.295Z,11.40
2017-08-29T23:07:24.017Z,10.75
2017-08-29T23:10:34.215Z,11.95
2017-08-29T23:13:44.647Z,11.77
2017-08-29T23:16:54.558Z,9.65
2017-08-29T23:20:05.125Z,10.15
2017-08-29T23:23:15.388Z,9.67
2017-08-29T23:26:25.673Z,10.50
2017-08-29T23:29:36.351Z,10.50
2017-08-29T23:32:46.897Z,10.93
2017-08-29T23:35:57.028Z,10.53
2017-08-29T23:39:07.098Z,10.88
2017-08-29T23:42:17.364Z,9.27
2017-08-29T23:45:27.840Z,11.23
2017-08-29T23:48:38.131Z,11.00
2017-08-29T23:51:48.301Z,11.17
2017-08-29T23:54:58.448Z,11.10
2017-08-29T23:58:08.417Z,10.13
